Time;durP1;ratioP1;P1;durP2;ratioP2;P2;SDS_P1;SDS_P2;PMS_P1;PMS_P2;Temp;Humidity;BMP_temperature;BMP_pressure;BME280_temperature;BME280_humidity;BME280_pressure;Samples;Min_cycle;Max_cycle;Signal;HPM_P1;HPM_P2
2022/06/11 00:00:32;;;;;;;7.40;4.30;;;;;;;17.08;100.00;98690.32;1758190;79;28059;-85
2022/06/11 00:03:00;;;;;;;5.80;4.40;;;;;;;17.05;100.00;98696.75;1764434;79;28041;-84
2022/06/11 00:05:30;;;;;;;6.67;4.60;;;;;;;17.01;100.00;98695.37;1755709;79;28331;-88
2022/06/11 00:07:57;;;;;;;8.83;5.25;;;;;;;16.93;100.00;98691.25;1760953;79;28103;-88
2022/06/11 00:10:23;;;;;;;7.87;4.65;;;;;;;16.88;100.00;98689.52;1755636;79;28136;-85
2022/06/11 00:12:50;;;;;;;5.97;4.00;;;;;;;16.83;100.00;98689.59;1752285;79;28102;-90
2022/06/11 00:15:19;;;;;;;6.60;4.33;;;;;;;16.76;100.00;98689.80;1753135;79;28039;-85
2022/06/11 00:17:46;;;;;;;7.15;4.22;;;;;;;16.79;100.00;98696.14;1763838;79;28084;-87
2022/06/11 00:20:14;;;;;;;7.20;4.12;;;;;;;16.79;100.00;98694.34;1793068;79;28071;-87
2022/06/11 00:22:41;;;;;;;6.65;4.92;;;;;;;16.81;100.00;98697.66;1764949;79;28087;-90
2022/06/11 00:25:08;;;;;;;10.03;4.90;;;;;;;16.81;100.00;98692.86;1763939;79;28501;-86
2022/06/11 00:27:36;;;;;;;5.15;4.20;;;;;;;16.78;100.00;98691.83;1790140;79;28157;-88
2022/06/11 00:30:05;;;;;;;5.87;4.85;;;;;;;16.77;100.00;98691.47;1764749;79;28078;-87
2022/06/11 00:32:31;;;;;;;6.08;5.05;;;;;;;16.78;100.00;98696.63;1764035;79;28106;-87
2022/06/11 00:35:01;;;;;;;9.68;4.95;;;;;;;16.77;100.00;98697.59;1764562;79;28091;-87
2022/06/11 00:37:25;;;;;;;6.75;4.30;;;;;;;16.71;100.00;98692.86;1763580;79;28104;-85
2022/06/11 00:39:51;;;;;;;6.97;5.00;;;;;;;16.58;100.00;98703.66;1764496;79;28209;-85
2022/06/11 00:42:21;;;;;;;5.20;4.47;;;;;;;16.51;100.00;98705.70;1767632;79;28099;-85
2022/06/11 00:44:48;;;;;;;7.78;5.10;;;;;;;16.53;100.00;98707.21;1764255;79;28091;-89
2022/06/11 00:47:23;;;;;;;7.55;5.17;;;;;;;16.53;100.00;98705.89;1766888;79;28154;-89
2022/06/11 00:49:53;;;;;;;7.92;4.50;;;;;;;16.58;100.00;98701.02;1764374;80;28059;-88
2022/06/11 00:52:35;;;;;;;6.60;4.90;;;;;;;16.59;100.00;98696.13;1764930;79;28074;-87
2022/06/11 00:55:14;;;;;;;8.48;5.40;;;;;;;16.58;100.00;98705.50;1767121;79;28114;-87
2022/06/11 00:57:50;;;;;;;6.12;4.50;;;;;;;16.57;100.00;98707.31;1764991;79;28150;-87
2022/06/11 01:00:26;;;;;;;5.12;3.85;;;;;;;16.46;100.00;98709.23;1764778;79;28087;-87
2022/06/11 01:02:57;;;;;;;5.15;4.00;;;;;;;16.30;100.00;98712.41;1765053;79;28048;-87
2022/06/11 01:05:26;;;;;;;4.80;4.25;;;;;;;16.21;100.00;98705.28;1765103;79;43110;-86
2022/06/11 01:08:26;;;;;;;7.83;4.97;;;;;;;16.22;100.00;98706.48;1763855;79;28083;-86
2022/06/11 01:11:05;;;;;;;4.92;4.42;;;;;;;16.22;100.00;98706.96;1766973;79;28068;-86
2022/06/11 01:13:51;;;;;;;6.05;5.10;;;;;;;16.24;100.00;98700.59;1763940;79;28133;-85
2022/06/11 01:16:24;;;;;;;6.03;5.05;;;;;;;16.31;100.00;98699.05;1764600;77;28078;-85
2022/06/11 01:19:06;;;;;;;6.70;4.60;;;;;;;16.39;100.00;98701.50;1759324;79;28127;-85
2022/06/11 01:22:04;;;;;;;9.18;5.37;;;;;;;16.42;100.00;98702.05;1760680;79;28076;-87
2022/06/11 01:24:45;;;;;;;8.50;4.72;;;;;;;16.46;100.00;98703.95;1746834;80;28080;-87
2022/06/11 01:27:37;;;;;;;6.90;5.45;;;;;;;16.42;100.00;98700.73;1760364;79;28055;-87
2022/06/11 01:30:20;;;;;;;5.97;4.37;;;;;;;16.41;100.00;98689.00;1760733;79;28004;-87
2022/06/11 01:32:47;;;;;;;7.25;5.00;;;;;;;16.37;100.00;98687.59;1757942;79;28098;-87
2022/06/11 01:35:35;;;;;;;8.68;5.35;;;;;;;16.28;100.00;98680.84;1759030;79;28164;-87
2022/06/11 01:38:11;;;;;;;7.75;5.70;;;;;;;16.21;100.00;98686.31;1761554;79;28060;-85
2022/06/11 01:40:46;;;;;;;8.70;5.33;;;;;;;16.15;100.00;98688.17;1752696;79;28126;-87
2022/06/11 01:43:22;;;;;;;7.30;5.80;;;;;;;16.08;100.00;98688.88;1759567;79;27996;-87
2022/06/11 01:45:50;;;;;;;6.65;5.17;;;;;;;16.03;100.00;98688.45;1760114;79;28146;-86
2022/06/11 01:48:19;;;;;;;9.93;5.87;;;;;;;15.94;100.00;98688.75;1759943;80;28121;-87
2022/06/11 01:50:52;;;;;;;8.80;5.22;;;;;;;15.92;100.00;98699.11;1761151;79;28087;-87
2022/06/11 01:53:28;;;;;;;6.50;5.47;;;;;;;15.93;100.00;98700.27;1759151;79;28113;-86
2022/06/11 01:56:04;;;;;;;9.18;5.40;;;;;;;15.83;100.00;98694.97;1758316;80;28127;-86
2022/06/11 01:58:38;;;;;;;8.68;5.72;;;;;;;15.73;100.00;98697.22;1761990;79;28103;-85
2022/06/11 02:01:31;;;;;;;12.03;5.40;;;;;;;15.74;100.00;98695.78;1761308;79;28158;-86
2022/06/11 02:04:10;;;;;;;8.83;5.78;;;;;;;15.79;100.00;98697.53;1759275;79;28141;-85
2022/06/11 02:06:43;;;;;;;5.50;4.97;;;;;;;15.79;100.00;98695.38;1757862;79;28107;-86
2022/06/11 02:09:19;;;;;;;8.60;6.00;;;;;;;15.77;100.00;98687.58;1759173;79;28129;-86
2022/06/11 02:11:49;;;;;;;6.28;4.95;;;;;;;15.76;100.00;98695.66;1759490;80;27985;-86
2022/06/11 02:14:19;;;;;;;5.85;4.85;;;;;;;15.77;100.00;98688.91;1763335;79;28067;-87
2022/06/11 02:16:57;;;;;;;8.65;5.78;;;;;;;15.79;100.00;98688.78;1762236;79;28226;-87
2022/06/11 02:19:27;;;;;;;7.90;4.92;;;;;;;15.79;100.00;98694.05;1761651;79;27996;-87
2022/06/11 02:22:00;;;;;;;7.78;4.80;;;;;;;15.78;100.00;98687.94;1756677;81;28075;-87
2022/06/11 02:24:33;;;;;;;7.47;4.62;;;;;;;15.72;100.00;98694.23;1762098;79;28079;-87
2022/06/11 02:27:02;;;;;;;7.70;5.45;;;;;;;15.52;100.00;98695.95;1764803;79;28078;-85
2022/06/11 02:29:31;;;;;;;7.22;5.08;;;;;;;15.42;100.00;98697.20;1756690;79;28085;-85
2022/06/11 02:32:01;;;;;;;6.95;5.42;;;;;;;15.40;100.00;98696.48;1759249;81;28085;-85
2022/06/11 02:34:27;;;;;;;10.95;5.80;;;;;;;15.46;100.00;98699.09;1760899;79;28124;-87
2022/06/11 02:37:05;;;;;;;7.03;5.17;;;;;;;15.50;100.00;98689.94;1760699;79;28189;-87
2022/06/11 02:39:36;;;;;;;7.28;5.15;;;;;;;15.57;100.00;98692.44;1766771;79;28086;-87
2022/06/11 02:42:05;;;;;;;5.40;4.00;;;;;;;15.60;100.00;98699.27;1762548;79;28120;-87
2022/06/11 02:44:32;;;;;;;9.20;4.80;;;;;;;15.53;100.00;98698.95;1762350;79;28085;-87
2022/06/11 02:46:58;;;;;;;8.15;5.25;;;;;;;15.49;100.00;98702.28;1761750;79;28078;-89
2022/06/11 02:49:38;;;;;;;8.75;5.15;;;;;;;15.42;100.00;98712.19;1759206;79;28053;-89
2022/06/11 02:52:08;;;;;;;6.50;5.00;;;;;;;15.23;100.00;98719.49;1764377;79;28060;-87
2022/06/11 02:54:36;;;;;;;6.97;4.35;;;;;;;15.05;100.00;98715.78;1758678;80;28063;-87
2022/06/11 02:57:04;;;;;;;6.97;5.15;;;;;;;14.92;100.00;98723.86;1764512;79;28214;-86
2022/06/11 02:59:31;;;;;;;7.10;5.10;;;;;;;14.76;100.00;98722.63;1764570;79;28044;-89
2022/06/11 03:01:59;;;;;;;6.80;5.15;;;;;;;14.68;100.00;98723.23;1761658;79;28207;-89
2022/06/11 03:04:28;;;;;;;5.17;4.67;;;;;;;14.67;100.00;98714.16;1761630;79;28125;-84
2022/06/11 03:07:04;;;;;;;9.93;4.90;;;;;;;14.85;100.00;98727.13;1762189;79;28106;-84
2022/06/11 03:09:38;;;;;;;8.05;5.10;;;;;;;14.85;100.00;98734.55;1765371;79;28079;-87
2022/06/11 03:12:07;;;;;;;8.15;5.15;;;;;;;14.94;100.00;98744.83;1764737;79;28158;-86
2022/06/11 03:14:37;;;;;;;5.05;4.45;;;;;;;14.86;100.00;98736.23;1758594;79;28087;-86
2022/06/11 03:17:04;;;;;;;11.50;4.85;;;;;;;14.83;100.00;98734.34;1764135;79;28020;-85
2022/06/11 03:19:32;;;;;;;9.30;5.45;;;;;;;14.89;100.00;98729.88;1766061;79;28170;-85
2022/06/11 03:21:58;;;;;;;6.33;5.10;;;;;;;15.03;100.00;98734.83;1766095;79;28084;-87
2022/06/11 03:24:26;;;;;;;11.38;5.65;;;;;;;15.13;100.00;98734.41;1767976;79;28225;-87
2022/06/11 03:26:55;;;;;;;8.13;5.17;;;;;;;15.18;100.00;98733.55;1793695;77;28102;-87
2022/06/11 03:29:29;;;;;;;10.93;5.92;;;;;;;15.27;100.00;98733.27;1764228;79;28076;-87
2022/06/11 03:31:58;;;;;;;6.72;5.12;;;;;;;15.37;100.00;98735.48;1764609;79;28106;-87
2022/06/11 03:34:33;;;;;;;8.50;4.80;;;;;;;15.48;100.00;98735.41;1765535;79;28020;-87
2022/06/11 03:36:59;;;;;;;6.72;5.08;;;;;;;15.45;100.00;98733.02;1766243;79;28087;-87
2022/06/11 03:39:28;;;;;;;6.72;5.00;;;;;;;15.45;100.00;98733.86;1766821;79;27984;-89
2022/06/11 03:41:56;;;;;;;5.67;4.35;;;;;;;15.59;100.00;98734.52;1765435;79;28150;-90
2022/06/11 03:44:22;;;;;;;7.70;4.80;;;;;;;15.85;100.00;98742.35;1763680;79;28016;-86
2022/06/11 03:46:50;;;;;;;8.10;4.55;;;;;;;16.09;100.00;98746.80;1768423;79;28158;-87
2022/06/11 03:49:23;;;;;;;7.62;4.25;;;;;;;16.35;100.00;98748.98;1767704;79;28016;-86
2022/06/11 03:51:48;;;;;;;6.85;3.85;;;;;;;16.55;100.00;98753.32;1764637;79;28120;-86
2022/06/11 03:54:15;;;;;;;8.50;4.35;;;;;;;16.69;100.00;98753.78;1764573;79;28024;-85
2022/06/11 03:56:44;;;;;;;5.08;3.50;;;;;;;16.79;100.00;98753.81;1766577;79;28095;-87
2022/06/11 03:59:12;;;;;;;6.95;3.80;;;;;;;17.00;100.00;98749.22;1790229;79;28146;-87
2022/06/11 04:01:39;;;;;;;5.33;4.20;;;;;;;17.18;100.00;98759.94;1764882;79;28079;-87
2022/06/11 04:04:09;;;;;;;5.17;4.12;;;;;;;17.37;100.00;98759.06;1764279;79;28004;-87
2022/06/11 04:06:39;;;;;;;9.10;5.45;;;;;;;17.51;100.00;98758.11;1760833;79;28119;-87
2022/06/11 04:09:09;;;;;;;6.77;5.23;;;;;;;17.69;100.00;98755.59;1767771;79;28083;-85
2022/06/11 04:11:37;;;;;;;6.70;5.08;;;;;;;17.87;100.00;98759.17;1767127;79;28102;-89
2022/06/11 04:14:04;;;;;;;7.35;4.67;;;;;;;18.06;100.00;98754.75;1765773;79;28058;-88
2022/06/11 04:16:34;;;;;;;6.80;5.42;;;;;;;18.23;100.00;98755.30;1765837;78;28473;-88
2022/06/11 04:19:03;;;;;;;6.22;4.85;;;;;;;18.34;100.00;98752.45;1762790;79;28082;-88
2022/06/11 04:21:31;;;;;;;6.67;5.62;;;;;;;18.41;100.00;98753.55;1765523;79;28104;-86
2022/06/11 04:24:00;;;;;;;6.53;4.90;;;;;;;18.50;100.00;98747.34;1763883;79;28151;-87
2022/06/11 04:26:29;;;;;;;6.45;4.92;;;;;;;18.64;100.00;98751.34;1764609;79;28068;-87
2022/06/11 04:29:00;;;;;;;7.25;5.03;;;;;;;18.77;100.00;98752.63;1762428;79;27988;-87
2022/06/11 04:31:29;;;;;;;7.08;5.28;;;;;;;18.87;100.00;98757.88;1765592;79;28074;-87
2022/06/11 04:33:57;;;;;;;7.58;5.25;;;;;;;18.93;100.00;98748.48;1766039;79;28084;-87
2022/06/11 04:36:25;;;;;;;7.33;5.75;;;;;;;18.98;100.00;98755.48;1764088;80;28009;-85
2022/06/11 04:38:53;;;;;;;6.60;5.78;;;;;;;18.98;100.00;98749.69;1765892;79;28083;-85
2022/06/11 04:41:21;;;;;;;9.33;5.60;;;;;;;18.96;100.00;98754.30;1763183;79;28082;-89
2022/06/11 04:43:59;;;;;;;8.30;6.62;;;;;;;18.95;100.00;98750.47;1762753;79;28099;-90
2022/06/11 04:46:25;;;;;;;7.92;6.20;;;;;;;18.98;100.00;98751.51;1762595;79;28008;-87
2022/06/11 04:48:51;;;;;;;7.65;6.17;;;;;;;18.94;100.00;98746.98;1764428;79;28121;-87
2022/06/11 04:51:17;;;;;;;10.72;6.62;;;;;;;18.95;100.00;98743.84;1764872;79;28099;-87
2022/06/11 04:53:45;;;;;;;8.30;6.42;;;;;;;18.93;100.00;98752.46;1766741;79;28067;-85
2022/06/11 04:56:24;;;;;;;8.25;6.42;;;;;;;18.85;100.00;98749.72;1761294;79;28146;-87
2022/06/11 04:58:57;;;;;;;8.20;6.37;;;;;;;18.86;100.00;98752.72;1767346;79;28159;-86
2022/06/11 05:01:26;;;;;;;8.38;6.67;;;;;;;18.85;100.00;98758.51;1763564;79;28174;-89
2022/06/11 05:03:53;;;;;;;8.13;5.92;;;;;;;18.75;100.00;98761.24;1762918;79;28056;-89
2022/06/11 05:06:23;;;;;;;8.33;6.83;;;;;;;18.67;100.00;98759.81;1764647;79;28109;-86
2022/06/11 05:08:50;;;;;;;8.05;6.78;;;;;;;18.66;100.00;98770.08;1768431;79;28033;-85
2022/06/11 05:11:16;;;;;;;7.50;6.67;;;;;;;18.53;100.00;98768.27;1765428;79;28071;-87
2022/06/11 05:13:42;;;;;;;12.90;7.28;;;;;;;18.45;100.00;98775.27;1765128;79;28155;-86
2022/06/11 05:16:12;;;;;;;8.70;6.65;;;;;;;18.35;100.00;98767.38;1764839;79;28096;-87
2022/06/11 05:18:38;;;;;;;8.15;6.37;;;;;;;18.31;100.00;98768.66;1764512;79;28095;-87
2022/06/11 05:21:04;;;;;;;9.13;6.33;;;;;;;18.25;100.00;98763.95;1768462;79;28042;-86
2022/06/11 05:23:31;;;;;;;7.90;6.28;;;;;;;18.30;100.00;98767.83;1764035;79;28091;-86
2022/06/11 05:26:03;;;;;;;7.75;6.85;;;;;;;18.39;100.00;98766.09;1766491;79;28150;-87
2022/06/11 05:28:31;;;;;;;8.58;7.05;;;;;;;18.42;100.00;98772.44;1766231;79;28095;-87
2022/06/11 05:31:02;;;;;;;8.88;6.90;;;;;;;18.49;100.00;98770.88;1765531;79;28125;-85
2022/06/11 05:33:37;;;;;;;9.53;6.90;;;;;;;18.55;100.00;98771.61;1765889;79;28087;-86
2022/06/11 05:38:52;;;;;;;11.65;7.30;;;;;;;18.51;100.00;98773.35;1710090;82;28076;-87
2022/06/11 05:41:24;;;;;;;9.05;7.45;;;;;;;18.52;100.00;98771.05;1714861;82;28159;-87
2022/06/11 05:43:50;;;;;;;10.55;6.92;;;;;;;18.42;100.00;98777.74;1713662;82;28162;-86
2022/06/11 05:46:22;;;;;;;11.30;7.75;;;;;;;18.46;100.00;98779.59;1714972;82;28139;-87
2022/06/11 05:48:49;;;;;;;;;;;;;;;18.43;100.00;98779.91;1714921;82;28090;-87
2022/06/11 05:51:20;;;;;;;11.03;8.30;;;;;;;18.44;100.00;98781.58;1713377;82;22009;-87
2022/06/11 05:53:49;;;;;;;9.70;8.70;;;;;;;18.53;100.00;98770.91;1718923;82;28155;-87
2022/06/11 05:56:17;;;;;;;11.93;8.63;;;;;;;18.61;100.00;98781.63;1661951;85;28116;-87
2022/06/11 05:58:47;;;;;;;10.30;8.65;;;;;;;18.54;100.00;98778.38;1716798;82;28027;-86
2022/06/11 06:01:17;;;;;;;16.15;9.70;;;;;;;18.48;100.00;98785.11;1712639;82;28023;-85
2022/06/11 06:03:44;;;;;;;10.28;8.23;;;;;;;18.44;100.00;98777.08;1715550;82;28102;-85
2022/06/11 06:06:10;;;;;;;10.85;8.95;;;;;;;18.45;100.00;98785.88;1715170;83;28246;-85
2022/06/11 06:08:41;;;;;;;12.37;9.55;;;;;;;18.32;100.00;98788.89;1716244;82;28158;-87
2022/06/11 06:11:07;;;;;;;9.80;8.63;;;;;;;18.21;100.00;98786.43;1711841;82;28100;-85
2022/06/11 06:13:49;;;;;;;11.80;9.05;;;;;;;18.18;100.00;98786.70;1711804;82;28106;-85
2022/06/11 06:16:17;;;;;;;9.50;8.38;;;;;;;18.12;100.00;98788.61;1708913;82;28202;-85
2022/06/11 06:18:43;;;;;;;10.58;8.73;;;;;;;18.18;100.00;98784.06;1714098;82;28061;-86
2022/06/11 06:21:14;;;;;;;9.58;8.58;;;;;;;18.30;100.00;98785.54;1716362;82;28065;-88
2022/06/11 06:23:42;;;;;;;9.65;7.72;;;;;;;18.47;100.00;98783.43;1708680;82;28061;-86
2022/06/11 06:26:10;;;;;;;11.40;7.78;;;;;;;18.54;100.00;98775.72;1711737;82;28090;-86
2022/06/11 06:28:37;;;;;;;9.40;8.38;;;;;;;18.52;100.00;98784.30;1710751;82;28107;-85
2022/06/11 06:31:06;;;;;;;9.25;7.33;;;;;;;18.47;100.00;98783.92;1713475;82;28101;-85
2022/06/11 06:33:33;;;;;;;9.80;7.20;;;;;;;18.53;100.00;98788.14;1714236;82;28019;-86
2022/06/11 06:36:05;;;;;;;7.72;6.03;;;;;;;18.56;100.00;98785.21;1709743;82;28148;-88
2022/06/11 06:38:32;;;;;;;9.78;6.70;;;;;;;18.53;100.00;98788.63;1705041;82;28175;-88
2022/06/11 06:40:58;;;;;;;5.67;4.60;;;;;;;18.57;100.00;98794.00;1705658;82;28072;-88
2022/06/11 06:43:24;;;;;;;4.78;4.00;;;;;;;18.66;100.00;98793.94;1706275;82;28069;-86
2022/06/11 06:45:51;;;;;;;7.80;4.95;;;;;;;18.56;100.00;98796.30;1705031;82;28081;-86
2022/06/11 06:48:17;;;;;;;5.83;4.60;;;;;;;18.54;100.00;98796.47;1679362;82;28148;-87
2022/06/11 06:50:44;;;;;;;5.62;4.58;;;;;;;18.54;100.00;98795.15;1700028;82;28152;-87
2022/06/11 06:53:16;;;;;;;6.83;4.20;;;;;;;18.63;100.00;98800.88;1702972;82;28115;-86
2022/06/11 06:55:43;;;;;;;6.90;4.25;;;;;;;18.69;100.00;98798.12;1696312;83;28508;-86
2022/06/11 06:58:09;;;;;;;8.03;4.60;;;;;;;18.66;100.00;98797.91;1701670;82;28056;-89
2022/06/11 07:00:36;;;;;;;4.97;3.98;;;;;;;18.69;100.00;98800.28;1704514;82;43102;-85
2022/06/11 07:03:05;;;;;;;4.20;3.80;;;;;;;18.80;100.00;98796.58;1702362;82;28014;-86
2022/06/11 07:05:33;;;;;;;4.97;3.50;;;;;;;18.90;100.00;98795.18;1701004;82;28088;-86
2022/06/11 07:07:59;;;;;;;5.65;3.05;;;;;;;18.96;100.00;98799.89;1702763;82;28073;-88
2022/06/11 07:10:26;;;;;;;5.80;3.52;;;;;;;19.04;100.00;98798.13;1706888;82;28167;-89
2022/06/11 07:12:53;;;;;;;4.60;3.40;;;;;;;19.13;100.00;98803.04;1696971;83;28087;-85
2022/06/11 07:15:27;;;;;;;5.05;3.00;;;;;;;19.17;100.00;98802.58;1677737;83;28085;-85
2022/06/11 07:18:02;;;;;;;3.60;2.30;;;;;;;19.17;100.00;98811.03;1701228;82;28086;-85
2022/06/11 07:20:32;;;;;;;2.75;1.70;;;;;;;19.17;100.00;98813.68;1703019;82;28463;-85
2022/06/11 07:23:05;;;;;;;2.37;1.90;;;;;;;19.17;100.00;98809.21;1704121;82;28109;-86
2022/06/11 07:25:34;;;;;;;2.67;2.17;;;;;;;19.10;100.00;98813.45;1702460;82;28069;-86
2022/06/11 07:28:08;;;;;;;2.62;1.80;;;;;;;19.16;100.00;98810.19;1701782;83;28084;-89
2022/06/11 07:30:37;;;;;;;2.00;1.60;;;;;;;19.31;100.00;98816.31;1701601;82;28138;-89
2022/06/11 07:33:07;;;;;;;6.95;2.62;;;;;;;19.43;100.00;98814.56;1708483;82;28115;-86
2022/06/11 07:35:38;;;;;;;4.47;2.00;;;;;;;19.55;100.00;98813.38;1697884;83;28151;-86
2022/06/11 07:38:12;;;;;;;2.77;1.70;;;;;;;19.66;100.00;98816.27;1700951;82;28096;-89
2022/06/11 07:40:38;;;;;;;2.52;1.65;;;;;;;19.77;100.00;98814.69;1704348;82;28133;-89
2022/06/11 07:43:06;;;;;;;2.62;1.52;;;;;;;19.87;100.00;98816.75;1704869;82;28172;-86
2022/06/11 07:45:35;;;;;;;3.70;2.20;;;;;;;19.97;100.00;98810.83;1706069;83;28013;-86
2022/06/11 07:48:01;;;;;;;2.47;2.02;;;;;;;19.94;100.00;98817.80;1704778;83;28103;-88
2022/06/11 07:50:34;;;;;;;3.15;1.90;;;;;;;19.86;100.00;98815.08;1701803;83;28139;-86
2022/06/11 07:53:01;;;;;;;2.33;1.80;;;;;;;19.86;100.00;98810.25;1701633;83;28088;-86
2022/06/11 07:55:28;;;;;;;2.65;2.25;;;;;;;19.99;100.00;98819.48;1709265;83;28107;-85
2022/06/11 07:58:02;;;;;;;2.30;1.80;;;;;;;20.11;100.00;98820.05;1701667;83;28095;-89
2022/06/11 08:00:31;;;;;;;3.72;2.02;;;;;;;20.15;100.00;98809.44;1701497;83;28235;-87
2022/06/11 08:02:58;;;;;;;2.80;2.22;;;;;;;20.25;100.00;98818.62;1703516;83;28163;-87
2022/06/11 08:05:25;;;;;;;2.22;1.77;;;;;;;20.37;100.00;98818.22;1697070;82;28135;-87
2022/06/11 08:07:51;;;;;;;2.77;1.50;;;;;;;20.42;100.00;98821.23;1700337;82;28134;-87
2022/06/11 08:10:19;;;;;;;3.75;1.50;;;;;;;20.35;100.00;98818.86;1699501;83;28107;-89
2022/06/11 08:12:48;;;;;;;2.02;1.57;;;;;;;20.35;100.00;98822.02;1705806;83;28119;-86
2022/06/11 08:15:17;;;;;;;1.32;1.07;;;;;;;20.37;100.00;98811.58;1677375;83;28088;-90
2022/06/11 08:17:49;;;;;;;2.22;1.55;;;;;;;20.47;100.00;98811.44;1700070;82;28072;-89
2022/06/11 08:20:18;;;;;;;3.72;1.60;;;;;;;20.55;100.00;98814.64;1704345;82;28104;-90
2022/06/11 08:22:45;;;;;;;3.90;1.57;;;;;;;20.64;100.00;98810.51;1707185;82;27993;-85
2022/06/11 08:25:11;;;;;;;1.57;1.10;;;;;;;20.74;100.00;98804.55;1702259;82;28061;-86
2022/06/11 08:27:37;;;;;;;1.70;1.12;;;;;;;20.76;100.00;98800.41;1705452;82;28112;-85
2022/06/11 08:30:08;;;;;;;4.62;1.20;;;;;;;20.84;100.00;98807.06;1703711;82;42182;-85
2022/06/11 08:32:35;;;;;;;2.37;1.15;;;;;;;20.91;100.00;98806.75;1701880;82;28057;-86
2022/06/11 08:35:04;;;;;;;1.55;1.25;;;;;;;20.87;100.00;98812.07;1705694;82;28041;-89
2022/06/11 08:37:30;;;;;;;1.40;1.20;;;;;;;20.72;100.00;98810.55;1653534;84;28057;-87
2022/06/11 08:39:56;;;;;;;2.33;1.10;;;;;;;20.69;100.00;98812.18;1640086;86;28163;-86
2022/06/11 08:42:36;;;;;;;5.28;1.10;;;;;;;20.64;100.00;98808.34;1671777;84;28075;-89
2022/06/11 08:45:20;;;;;;;1.10;1.00;;;;;;;20.66;100.00;98802.38;1708551;82;28125;-86
2022/06/11 08:47:53;;;;;;;2.00;1.40;;;;;;;20.77;100.00;98796.75;1701886;83;28116;-86
2022/06/11 08:50:45;;;;;;;2.30;1.50;;;;;;;20.85;100.00;98804.73;1713867;82;28082;-86
2022/06/11 08:53:09;;;;;;;3.08;1.12;;;;;;;20.92;100.00;98802.27;1707163;82;28090;-86
2022/06/11 08:55:37;;;;;;;1.15;1.00;;;;;;;20.97;100.00;98802.60;1700537;82;28136;-86
2022/06/11 08:58:23;;;;;;;1.67;1.17;;;;;;;20.92;100.00;98807.09;1705104;82;28114;-86
2022/06/11 09:00:56;;;;;;;1.10;1.00;;;;;;;20.92;100.00;98811.08;1712947;82;28142;-86
2022/06/11 09:03:36;;;;;;;2.20;1.05;;;;;;;21.03;100.00;98803.28;1707575;82;28134;-86
2022/06/11 09:06:31;;;;;;;2.40;1.35;;;;;;;21.07;100.00;98803.28;1706046;82;28084;-86
2022/06/11 09:09:04;;;;;;;2.15;1.20;;;;;;;20.98;100.00;98798.95;1713704;82;28147;-86
2022/06/11 09:12:08;;;;;;;2.05;1.07;;;;;;;20.98;100.00;98798.95;1709780;82;28138;-87
2022/06/11 09:14:38;;;;;;;2.00;1.20;;;;;;;21.10;100.00;98803.80;1702518;82;28159;-86
2022/06/11 09:17:08;;;;;;;1.20;1.10;;;;;;;21.11;100.00;98801.45;1684367;83;28159;-86
2022/06/11 09:20:04;;;;;;;1.98;1.30;;;;;;;21.13;100.00;98793.31;1681579;82;28176;-86
2022/06/11 09:22:42;;;;;;;1.07;0.90;;;;;;;21.21;100.00;98795.53;1707042;82;28092;-85
2022/06/11 09:25:27;;;;;;;2.00;1.00;;;;;;;21.39;100.00;98794.51;1706614;82;28073;-86
2022/06/11 09:28:04;;;;;;;1.37;1.10;;;;;;;21.41;100.00;98800.52;1707174;82;28076;-86
2022/06/11 09:30:40;;;;;;;3.77;1.15;;;;;;;21.45;100.00;98796.02;1710180;82;28155;-87
2022/06/11 09:33:28;;;;;;;0.95;0.90;;;;;;;21.59;100.00;98791.86;1706887;82;28091;-86
2022/06/11 09:36:06;;;;;;;1.15;0.90;;;;;;;21.62;100.00;98794.17;1706001;83;28036;-85
2022/06/11 09:39:00;;;;;;;2.12;1.00;;;;;;;21.67;100.00;98798.49;1703718;82;28152;-86
2022/06/11 09:41:42;;;;;;;0.98;0.90;;;;;;;21.76;100.00;98794.00;1705383;82;28099;-86
2022/06/11 09:44:15;;;;;;;1.05;0.90;;;;;;;21.81;100.00;98800.98;1698506;82;28161;-86
2022/06/11 09:46:58;;;;;;;1.40;1.00;;;;;;;21.70;99.80;98794.17;1704341;82;28161;-86
2022/06/11 09:49:34;;;;;;;4.35;1.12;;;;;;;21.76;99.04;98795.33;1691500;82;28103;-86
2022/06/11 09:52:05;;;;;;;1.72;0.93;;;;;;;21.89;99.11;98777.80;1693596;82;28147;-86
2022/06/11 09:54:38;;;;;;;1.62;1.10;;;;;;;22.05;98.84;98779.63;1661674;83;28182;-86
2022/06/11 09:57:21;;;;;;;1.82;1.00;;;;;;;22.06;98.26;98779.46;1697699;82;28065;-88
2022/06/11 10:00:12;;;;;;;1.25;0.88;;;;;;;21.91;96.39;98778.48;1707320;82;28152;-89
2022/06/11 10:05:25;;;;;;;4.15;2.02;;;;;;;21.88;94.75;98780.13;1699230;82;28154;-86
2022/06/11 10:07:55;;;;;;;1.72;0.90;;;;;;;21.72;92.99;98781.50;1704700;82;28034;-86
2022/06/11 10:10:31;;;;;;;1.80;0.85;;;;;;;21.67;92.21;98782.51;1690591;82;28092;-89
2022/06/11 10:13:30;;;;;;;1.67;0.93;;;;;;;21.75;91.82;98775.84;1694154;82;28153;-86
2022/06/11 10:16:21;;;;;;;3.08;1.30;;;;;;;21.72;91.10;98774.84;1696000;84;28037;-89
2022/06/11 10:19:01;;;;;;;3.02;0.93;;;;;;;21.77;90.64;98767.66;1687627;82;28142;-86
2022/06/11 10:21:30;;;;;;;1.70;1.20;;;;;;;21.91;90.95;98777.15;1701798;82;28132;-86
2022/06/11 10:24:02;;;;;;;1.60;1.20;;;;;;;22.06;90.87;98770.62;1695013;82;28010;-85
2022/06/11 10:26:38;;;;;;;1.90;1.17;;;;;;;22.22;91.18;98767.07;1704869;82;28096;-89
2022/06/11 10:29:29;;;;;;;2.58;1.15;;;;;;;22.24;90.47;98763.24;1693139;82;28163;-86
2022/06/11 10:32:02;;;;;;;3.25;1.32;;;;;;;22.27;89.86;98761.55;1697072;82;27998;-86
2022/06/11 10:34:29;;;;;;;1.65;1.12;;;;;;;22.38;90.15;98759.84;1704002;82;28076;-85
2022/06/11 10:37:02;;;;;;;2.30;1.10;;;;;;;22.34;89.63;98760.36;1694307;82;28175;-86
2022/06/11 10:39:46;;;;;;;1.92;1.12;;;;;;;22.42;89.58;98759.00;1689568;82;28131;-86
2022/06/11 10:42:30;;;;;;;1.27;0.80;;;;;;;22.56;89.89;98750.25;1706201;82;28077;-86
2022/06/11 10:44:57;;;;;;;2.72;1.10;;;;;;;22.73;90.17;98750.52;1706541;82;28084;-86
2022/06/11 10:47:39;;;;;;;1.72;1.10;;;;;;;22.73;89.83;98752.35;1695712;82;28052;-85
2022/06/11 10:50:17;;;;;;;1.32;0.95;;;;;;;22.65;89.31;98754.52;1692893;82;28202;-88
2022/06/11 10:52:56;;;;;;;0.95;0.85;;;;;;;22.57;88.29;98751.92;1702697;82;27997;-85
2022/06/11 10:55:40;;;;;;;1.30;1.20;;;;;;;22.56;87.43;98751.58;1704024;82;28089;-85
2022/06/11 10:58:28;;;;;;;1.47;1.02;;;;;;;22.56;86.83;98748.91;1637331;85;28144;-89
2022/06/11 11:01:13;;;;;;;2.40;0.82;;;;;;;22.37;85.20;98746.66;1637553;85;28228;-89
2022/06/11 11:03:43;;;;;;;2.45;1.22;;;;;;;22.46;85.32;98745.14;1642553;85;28078;-86
2022/06/11 11:06:26;;;;;;;1.50;1.07;;;;;;;22.64;85.71;98736.05;1640114;85;28102;-86
2022/06/11 11:09:02;;;;;;;1.62;0.95;;;;;;;22.69;85.07;98739.02;1622921;87;28128;-86
2022/06/11 11:11:36;;;;;;;1.57;0.93;;;;;;;22.81;84.78;98731.77;1606748;89;28159;-85
2022/06/11 11:14:08;;;;;;;1.37;0.85;;;;;;;22.91;84.35;98734.23;1633184;86;28098;-86
2022/06/11 11:16:40;;;;;;;1.47;0.95;;;;;;;22.89;83.80;98733.06;1661873;85;28104;-85
2022/06/11 11:19:16;;;;;;;1.80;0.93;;;;;;;22.75;82.46;98728.97;1657839;85;28162;-86
2022/06/11 11:21:54;;;;;;;1.77;1.02;;;;;;;22.64;81.30;98733.38;1649451;85;28136;-86
2022/06/11 11:24:32;;;;;;;1.20;0.90;;;;;;;22.60;80.63;98731.55;1651655;85;28107;-85
2022/06/11 11:27:22;;;;;;;0.82;0.70;;;;;;;22.63;80.41;98737.05;1648117;86;28102;-86
2022/06/11 11:29:57;;;;;;;1.80;1.20;;;;;;;22.71;80.08;98735.17;1647892;85;28108;-85
2022/06/11 11:32:37;;;;;;;3.50;1.00;;;;;;;22.83;79.61;98726.27;1650648;85;28146;-88
2022/06/11 11:35:20;;;;;;;1.07;0.88;;;;;;;22.90;79.16;98726.72;1650441;85;28050;-86
2022/06/11 11:37:59;;;;;;;0.70;0.70;;;;;;;22.80;77.94;98718.63;1649217;85;28139;-89
2022/06/11 11:40:37;;;;;;;1.10;0.82;;;;;;;22.78;77.66;98712.13;1650564;86;28171;-89
2022/06/11 11:43:11;;;;;;;1.98;1.00;;;;;;;22.74;76.92;98714.83;1649024;86;28150;-89
2022/06/11 11:45:59;;;;;;;1.62;1.00;;;;;;;22.77;76.75;98717.12;1651090;86;28156;-86
2022/06/11 11:48:31;;;;;;;3.50;0.80;;;;;;;22.76;75.92;98710.12;1647178;86;28104;-85
2022/06/11 11:51:20;;;;;;;0.82;0.68;;;;;;;22.85;75.95;98713.08;1638245;86;28125;-86
2022/06/11 11:54:05;;;;;;;1.37;0.75;;;;;;;22.75;74.36;98699.11;1648111;86;28001;-89
2022/06/11 11:56:47;;;;;;;0.93;0.65;;;;;;;22.77;73.82;98700.28;1648531;86;28130;-89